sensor_id;sensor_type;location;lat;lon;timestamp;pressure;altitude;pressure_sealevel;temperature;humidity
23361;BME280;11852;50.082;18.554;2023-12-07T00:00:31;98553.0;;;-1.04;92.95
23361;BME280;11852;50.082;18.554;2023-12-07T00:01:36;98549.0;;;-1.04;93.03
23361;BME280;11852;50.082;18.554;2023-12-07T00:02:41;98548.0;;;-1.05;92.91
23361;BME280;11852;50.082;18.554;2023-12-07T00:03:46;98548.0;;;-1.06;92.93
23361;BME280;11852;50.082;18.554;2023-12-07T00:04:50;98548.0;;;-1.06;92.87
23361;BME280;11852;50.082;18.554;2023-12-07T00:05:55;98547.0;;;-1.1;92.71
23361;BME280;11852;50.082;18.554;2023-12-07T00:07:00;98549.0;;;-1.13;92.74
23361;BME280;11852;50.082;18.554;2023-12-07T00:08:05;98552.0;;;-1.14;92.57
23361;BME280;11852;50.082;18.554;2023-12-07T00:09:09;98552.0;;;-1.13;92.62
23361;BME280;11852;50.082;18.554;2023-12-07T00:10:14;98546.0;;;-1.13;92.72
23361;BME280;11852;50.082;18.554;2023-12-07T00:11:19;98549.0;;;-1.13;93.08
23361;BME280;11852;50.082;18.554;2023-12-07T00:12:24;98550.0;;;-1.12;93.28
23361;BME280;11852;50.082;18.554;2023-12-07T00:13:29;98552.0;;;-1.13;93.36
23361;BME280;11852;50.082;18.554;2023-12-07T00:14:33;98548.0;;;-1.12;93.28
23361;BME280;11852;50.082;18.554;2023-12-07T00:15:38;98549.0;;;-1.13;93.49
23361;BME280;11852;50.082;18.554;2023-12-07T00:16:43;98553.0;;;-1.12;93.44
23361;BME280;11852;50.082;18.554;2023-12-07T00:17:48;98551.0;;;-1.13;93.44
23361;BME280;11852;50.082;18.554;2023-12-07T00:18:56;98552.0;;;-1.12;93.29
23361;BME280;11852;50.082;18.554;2023-12-07T00:20:00;98553.0;;;-1.11;93.19
23361;BME280;11852;50.082;18.554;2023-12-07T00:21:07;98556.0;;;-1.11;92.99
23361;BME280;11852;50.082;18.554;2023-12-07T00:22:10;98556.0;;;-1.12;92.89
23361;BME280;11852;50.082;18.554;2023-12-07T00:23:15;98561.0;;;-1.14;92.92
23361;BME280;11852;50.082;18.554;2023-12-07T00:24:19;98560.0;;;-1.16;93.13
23361;BME280;11852;50.082;18.554;2023-12-07T00:25:24;98563.0;;;-1.17;93.31
23361;BME280;11852;50.082;18.554;2023-12-07T00:26:29;98563.0;;;-1.15;93.44
23361;BME280;11852;50.082;18.554;2023-12-07T00:27:34;98563.0;;;-1.12;93.43
23361;BME280;11852;50.082;18.554;2023-12-07T00:28:39;98559.0;;;-1.12;93.34
23361;BME280;11852;50.082;18.554;2023-12-07T00:29:43;98563.0;;;-1.11;93.38
23361;BME280;11852;50.082;18.554;2023-12-07T00:30:48;98558.0;;;-1.12;93.32
23361;BME280;11852;50.082;18.554;2023-12-07T00:32:01;98557.0;;;-1.15;93.21
23361;BME280;11852;50.082;18.554;2023-12-07T00:33:06;98558.0;;;-1.18;93.07
23361;BME280;11852;50.082;18.554;2023-12-07T00:34:11;98561.0;;;-1.18;93.26
23361;BME280;11852;50.082;18.554;2023-12-07T00:35:15;98567.0;;;-1.2;93.39
23361;BME280;11852;50.082;18.554;2023-12-07T00:36:20;98559.0;;;-1.2;93.58
23361;BME280;11852;50.082;18.554;2023-12-07T00:37:25;98559.0;;;-1.2;93.76
23361;BME280;11852;50.082;18.554;2023-12-07T00:38:30;98562.0;;;-1.2;93.75
23361;BME280;11852;50.082;18.554;2023-12-07T00:39:34;98564.0;;;-1.2;93.75
23361;BME280;11852;50.082;18.554;2023-12-07T00:40:39;98556.0;;;-1.18;93.59
23361;BME280;11852;50.082;18.554;2023-12-07T00:41:44;98563.0;;;-1.18;93.53
23361;BME280;11852;50.082;18.554;2023-12-07T00:42:49;98559.0;;;-1.17;93.72
23361;BME280;11852;50.082;18.554;2023-12-07T00:43:54;98559.0;;;-1.17;93.6
23361;BME280;11852;50.082;18.554;2023-12-07T00:44:58;98564.0;;;-1.19;93.79
23361;BME280;11852;50.082;18.554;2023-12-07T00:46:07;98564.0;;;-1.18;94.09
23361;BME280;11852;50.082;18.554;2023-12-07T00:47:11;98559.0;;;-1.16;94.02
23361;BME280;11852;50.082;18.554;2023-12-07T00:48:16;98560.0;;;-1.17;93.71
23361;BME280;11852;50.082;18.554;2023-12-07T00:49:20;98556.0;;;-1.16;93.45
23361;BME280;11852;50.082;18.554;2023-12-07T00:50:25;98558.0;;;-1.17;93.34
23361;BME280;11852;50.082;18.554;2023-12-07T00:51:30;98554.0;;;-1.16;93.51
23361;BME280;11852;50.082;18.554;2023-12-07T00:52:35;98554.0;;;-1.14;93.58
23361;BME280;11852;50.082;18.554;2023-12-07T00:53:39;98554.0;;;-1.12;93.56
23361;BME280;11852;50.082;18.554;2023-12-07T00:54:44;98555.0;;;-1.14;93.46
23361;BME280;11852;50.082;18.554;2023-12-07T00:55:49;98558.0;;;-1.16;93.5
23361;BME280;11852;50.082;18.554;2023-12-07T00:56:54;98565.0;;;-1.19;93.25
23361;BME280;11852;50.082;18.554;2023-12-07T00:57:59;98563.0;;;-1.19;93.32
23361;BME280;11852;50.082;18.554;2023-12-07T00:59:06;98566.0;;;-1.2;93.32
23361;BME280;11852;50.082;18.554;2023-12-07T01:00:11;98568.0;;;-1.2;93.36
23361;BME280;11852;50.082;18.554;2023-12-07T01:01:15;98568.0;;;-1.2;93.32
23361;BME280;11852;50.082;18.554;2023-12-07T01:02:20;98569.0;;;-1.21;93.31
23361;BME280;11852;50.082;18.554;2023-12-07T01:03:25;98574.0;;;-1.2;93.17
23361;BME280;11852;50.082;18.554;2023-12-07T01:04:30;98574.0;;;-1.21;93.0
23361;BME280;11852;50.082;18.554;2023-12-07T01:05:38;98576.0;;;-1.24;92.85
23361;BME280;11852;50.082;18.554;2023-12-07T01:06:43;98576.0;;;-1.23;93.05
23361;BME280;11852;50.082;18.554;2023-12-07T01:07:50;98574.0;;;-1.23;93.2
23361;BME280;11852;50.082;18.554;2023-12-07T01:08:55;98575.0;;;-1.22;93.34
23361;BME280;11852;50.082;18.554;2023-12-07T01:10:02;98574.0;;;-1.23;93.4
23361;BME280;11852;50.082;18.554;2023-12-07T01:11:09;98581.0;;;-1.22;93.63
23361;BME280;11852;50.082;18.554;2023-12-07T01:12:14;98580.0;;;-1.22;93.75
23361;BME280;11852;50.082;18.554;2023-12-07T01:13:19;98578.0;;;-1.23;93.81
23361;BME280;11852;50.082;18.554;2023-12-07T01:14:27;98581.0;;;-1.24;93.88
23361;BME280;11852;50.082;18.554;2023-12-07T01:15:31;98583.0;;;-1.23;93.82
23361;BME280;11852;50.082;18.554;2023-12-07T01:16:42;98581.0;;;-1.23;93.75
23361;BME280;11852;50.082;18.554;2023-12-07T01:17:46;98586.0;;;-1.23;93.67
23361;BME280;11852;50.082;18.554;2023-12-07T01:18:51;98581.0;;;-1.25;93.71
23361;BME280;11852;50.082;18.554;2023-12-07T01:19:56;98579.0;;;-1.25;93.9
23361;BME280;11852;50.082;18.554;2023-12-07T01:21:01;98584.0;;;-1.23;93.71
23361;BME280;11852;50.082;18.554;2023-12-07T01:22:05;98584.0;;;-1.22;93.67
23361;BME280;11852;50.082;18.554;2023-12-07T01:23:10;98583.0;;;-1.22;93.72
23361;BME280;11852;50.082;18.554;2023-12-07T01:24:18;98584.0;;;-1.19;94.01
23361;BME280;11852;50.082;18.554;2023-12-07T01:25:23;98586.0;;;-1.21;93.52
23361;BME280;11852;50.082;18.554;2023-12-07T01:26:28;98589.0;;;-1.21;93.46
23361;BME280;11852;50.082;18.554;2023-12-07T01:27:33;98588.0;;;-1.21;93.43
23361;BME280;11852;50.082;18.554;2023-12-07T01:28:38;98585.0;;;-1.21;93.36
23361;BME280;11852;50.082;18.554;2023-12-07T01:29:48;98590.0;;;-1.22;93.5
23361;BME280;11852;50.082;18.554;2023-12-07T01:30:52;98588.0;;;-1.22;93.57
23361;BME280;11852;50.082;18.554;2023-12-07T01:31:57;98588.0;;;-1.23;93.58
23361;BME280;11852;50.082;18.554;2023-12-07T01:33:02;98588.0;;;-1.22;93.64
23361;BME280;11852;50.082;18.554;2023-12-07T01:34:09;98588.0;;;-1.2;93.63
23361;BME280;11852;50.082;18.554;2023-12-07T01:35:20;98591.0;;;-1.19;93.54
23361;BME280;11852;50.082;18.554;2023-12-07T01:36:25;98592.0;;;-1.17;93.74
23361;BME280;11852;50.082;18.554;2023-12-07T01:37:32;98593.0;;;-1.17;93.69
23361;BME280;11852;50.082;18.554;2023-12-07T01:38:46;98593.0;;;-1.17;93.75
23361;BME280;11852;50.082;18.554;2023-12-07T01:39:51;98590.0;;;-1.17;93.83
23361;BME280;11852;50.082;18.554;2023-12-07T01:40:59;98594.0;;;-1.16;93.88
23361;BME280;11852;50.082;18.554;2023-12-07T01:42:07;98594.0;;;-1.16;94.02
23361;BME280;11852;50.082;18.554;2023-12-07T01:43:14;98597.0;;;-1.16;93.91
23361;BME280;11852;50.082;18.554;2023-12-07T01:44:18;98596.0;;;-1.13;93.96
23361;BME280;11852;50.082;18.554;2023-12-07T01:45:23;98595.0;;;-1.12;94.11
23361;BME280;11852;50.082;18.554;2023-12-07T01:46:28;98593.0;;;-1.09;94.31
23361;BME280;11852;50.082;18.554;2023-12-07T01:47:33;98597.0;;;-1.05;94.32
23361;BME280;11852;50.082;18.554;2023-12-07T01:48:38;98599.0;;;-1.04;94.14
23361;BME280;11852;50.082;18.554;2023-12-07T01:49:44;98595.0;;;-1.03;94.1
23361;BME280;11852;50.082;18.554;2023-12-07T01:50:52;98595.0;;;-1.04;93.98
23361;BME280;11852;50.082;18.554;2023-12-07T01:51:56;98591.0;;;-1.03;93.89
23361;BME280;11852;50.082;18.554;2023-12-07T01:53:02;98589.0;;;-1.01;93.91
23361;BME280;11852;50.082;18.554;2023-12-07T01:54:06;98595.0;;;-0.99;93.91
23361;BME280;11852;50.082;18.554;2023-12-07T01:55:11;98592.0;;;-0.98;93.81
23361;BME280;11852;50.082;18.554;2023-12-07T01:56:16;98588.0;;;-0.98;93.68
23361;BME280;11852;50.082;18.554;2023-12-07T01:57:21;98593.0;;;-1.0;93.69
23361;BME280;11852;50.082;18.554;2023-12-07T01:58:25;98592.0;;;-0.99;93.81
23361;BME280;11852;50.082;18.554;2023-12-07T01:59:33;98589.0;;;-0.98;93.85
23361;BME280;11852;50.082;18.554;2023-12-07T02:00:37;98591.0;;;-0.98;93.87
23361;BME280;11852;50.082;18.554;2023-12-07T02:01:42;98595.0;;;-0.99;93.58
23361;BME280;11852;50.082;18.554;2023-12-07T02:02:50;98593.0;;;-1.0;93.26
23361;BME280;11852;50.082;18.554;2023-12-07T02:03:54;98592.0;;;-1.02;93.33
23361;BME280;11852;50.082;18.554;2023-12-07T02:04:59;98594.0;;;-1.03;93.53
23361;BME280;11852;50.082;18.554;2023-12-07T02:06:03;98589.0;;;-1.01;93.74
23361;BME280;11852;50.082;18.554;2023-12-07T02:07:08;98597.0;;;-1.0;93.77
23361;BME280;11852;50.082;18.554;2023-12-07T02:08:18;98587.0;;;-1.0;93.78
23361;BME280;11852;50.082;18.554;2023-12-07T02:09:23;98591.0;;;-1.0;93.71
23361;BME280;11852;50.082;18.554;2023-12-07T02:10:30;98589.0;;;-1.0;93.83
23361;BME280;11852;50.082;18.554;2023-12-07T02:11:37;98589.0;;;-1.0;93.68
23361;BME280;11852;50.082;18.554;2023-12-07T02:12:42;98593.0;;;-0.99;93.75
23361;BME280;11852;50.082;18.554;2023-12-07T02:13:47;98590.0;;;-0.98;93.76
23361;BME280;11852;50.082;18.554;2023-12-07T02:14:52;98596.0;;;-0.99;93.75
23361;BME280;11852;50.082;18.554;2023-12-07T02:15:57;98591.0;;;-1.0;93.72
23361;BME280;11852;50.082;18.554;2023-12-07T02:17:07;98593.0;;;-1.01;93.63
23361;BME280;11852;50.082;18.554;2023-12-07T02:20:45;98591.0;;;-1.03;93.9
23361;BME280;11852;50.082;18.554;2023-12-07T02:21:51;98587.0;;;-1.04;93.88
23361;BME280;11852;50.082;18.554;2023-12-07T02:23:01;98589.0;;;-1.04;93.97
23361;BME280;11852;50.082;18.554;2023-12-07T02:24:06;98595.0;;;-1.03;94.08
23361;BME280;11852;50.082;18.554;2023-12-07T02:25:14;98594.0;;;-1.03;93.99
23361;BME280;11852;50.082;18.554;2023-12-07T02:26:22;98593.0;;;-1.06;93.88
23361;BME280;11852;50.082;18.554;2023-12-07T02:28:45;98597.0;;;-1.07;94.13
23361;BME280;11852;50.082;18.554;2023-12-07T02:29:50;98600.0;;;-1.07;94.22
23361;BME280;11852;50.082;18.554;2023-12-07T02:30:55;98597.0;;;-1.09;94.11
23361;BME280;11852;50.082;18.554;2023-12-07T02:32:00;98597.0;;;-1.08;94.19
23361;BME280;11852;50.082;18.554;2023-12-07T02:33:04;98594.0;;;-1.1;94.28
23361;BME280;11852;50.082;18.554;2023-12-07T02:34:09;98593.0;;;-1.1;94.15
23361;BME280;11852;50.082;18.554;2023-12-07T02:35:14;98597.0;;;-1.11;94.17
23361;BME280;11852;50.082;18.554;2023-12-07T02:36:22;98596.0;;;-1.11;94.23
23361;BME280;11852;50.082;18.554;2023-12-07T02:37:27;98599.0;;;-1.1;94.18
23361;BME280;11852;50.082;18.554;2023-12-07T02:38:31;98601.0;;;-1.1;94.19
23361;BME280;11852;50.082;18.554;2023-12-07T02:39:36;98605.0;;;-1.09;94.12
23361;BME280;11852;50.082;18.554;2023-12-07T02:40:41;98607.0;;;-1.07;94.13
23361;BME280;11852;50.082;18.554;2023-12-07T02:41:46;98607.0;;;-1.07;94.13
23361;BME280;11852;50.082;18.554;2023-12-07T02:42:51;98611.0;;;-1.09;94.13
23361;BME280;11852;50.082;18.554;2023-12-07T02:43:55;98613.0;;;-1.08;94.06
23361;BME280;11852;50.082;18.554;2023-12-07T02:45:00;98610.0;;;-1.08;94.19
23361;BME280;11852;50.082;18.554;2023-12-07T02:46:08;98611.0;;;-1.09;94.23
23361;BME280;11852;50.082;18.554;2023-12-07T02:47:12;98614.0;;;-1.09;94.22
23361;BME280;11852;50.082;18.554;2023-12-07T02:48:17;98616.0;;;-1.1;94.46
23361;BME280;11852;50.082;18.554;2023-12-07T02:49:22;98615.0;;;-1.07;94.72
23361;BME280;11852;50.082;18.554;2023-12-07T02:50:29;98616.0;;;-1.07;94.65
23361;BME280;11852;50.082;18.554;2023-12-07T02:51:34;98617.0;;;-1.06;94.53
23361;BME280;11852;50.082;18.554;2023-12-07T02:52:42;98618.0;;;-1.06;94.41
23361;BME280;11852;50.082;18.554;2023-12-07T02:53:46;98618.0;;;-1.06;94.27
23361;BME280;11852;50.082;18.554;2023-12-07T02:54:51;98618.0;;;-1.05;94.27
23361;BME280;11852;50.082;18.554;2023-12-07T02:55:56;98615.0;;;-1.05;94.24
23361;BME280;11852;50.082;18.554;2023-12-07T02:57:01;98617.0;;;-1.06;94.15
23361;BME280;11852;50.082;18.554;2023-12-07T02:58:06;98618.0;;;-1.05;94.18
23361;BME280;11852;50.082;18.554;2023-12-07T02:59:13;98615.0;;;-1.06;94.19
23361;BME280;11852;50.082;18.554;2023-12-07T03:00:18;98620.0;;;-1.05;94.19
23361;BME280;11852;50.082;18.554;2023-12-07T03:01:25;98617.0;;;-1.03;94.15
23361;BME280;11852;50.082;18.554;2023-12-07T03:02:30;98616.0;;;-1.01;94.06
23361;BME280;11852;50.082;18.554;2023-12-07T03:03:35;98619.0;;;-1.0;94.0
23361;BME280;11852;50.082;18.554;2023-12-07T03:04:42;98613.0;;;-1.01;93.91
23361;BME280;11852;50.082;18.554;2023-12-07T03:05:47;98617.0;;;-1.01;93.96
23361;BME280;11852;50.082;18.554;2023-12-07T03:06:52;98617.0;;;-1.01;94.07
23361;BME280;11852;50.082;18.554;2023-12-07T03:07:56;98616.0;;;-0.99;94.39
23361;BME280;11852;50.082;18.554;2023-12-07T03:09:01;98613.0;;;-0.99;94.29
23361;BME280;11852;50.082;18.554;2023-12-07T03:10:06;98613.0;;;-0.99;94.08
23361;BME280;11852;50.082;18.554;2023-12-07T03:11:11;98616.0;;;-0.99;93.84
23361;BME280;11852;50.082;18.554;2023-12-07T03:12:18;98617.0;;;-0.99;93.92
23361;BME280;11852;50.082;18.554;2023-12-07T03:13:28;98621.0;;;-0.97;94.01
23361;BME280;11852;50.082;18.554;2023-12-07T03:14:35;98625.0;;;-0.95;94.0
23361;BME280;11852;50.082;18.554;2023-12-07T03:15:40;98628.0;;;-0.94;94.0
23361;BME280;11852;50.082;18.554;2023-12-07T03:16:45;98628.0;;;-0.94;93.82
23361;BME280;11852;50.082;18.554;2023-12-07T03:17:50;98627.0;;;-0.93;93.75
23361;BME280;11852;50.082;18.554;2023-12-07T03:18:55;98629.0;;;-0.93;93.57
23361;BME280;11852;50.082;18.554;2023-12-07T03:20:00;98629.0;;;-0.93;93.55
23361;BME280;11852;50.082;18.554;2023-12-07T03:21:04;98629.0;;;-0.93;93.74
23361;BME280;11852;50.082;18.554;2023-12-07T03:22:09;98629.0;;;-0.94;93.79
23361;BME280;11852;50.082;18.554;2023-12-07T03:23:17;98634.0;;;-0.92;93.67
23361;BME280;11852;50.082;18.554;2023-12-07T03:24:22;98631.0;;;-0.93;93.62
23361;BME280;11852;50.082;18.554;2023-12-07T03:25:26;98637.0;;;-0.91;93.58
23361;BME280;11852;50.082;18.554;2023-12-07T03:26:31;98639.0;;;-0.91;93.57
23361;BME280;11852;50.082;18.554;2023-12-07T03:27:36;98634.0;;;-0.91;93.6
23361;BME280;11852;50.082;18.554;2023-12-07T03:28:41;98639.0;;;-0.91;93.65
23361;BME280;11852;50.082;18.554;2023-12-07T03:29:46;98641.0;;;-0.91;93.62
23361;BME280;11852;50.082;18.554;2023-12-07T03:30:53;98642.0;;;-0.93;93.6
23361;BME280;11852;50.082;18.554;2023-12-07T03:31:58;98640.0;;;-1.01;93.51
23361;BME280;11852;50.082;18.554;2023-12-07T03:33:03;98637.0;;;-0.97;93.74
23361;BME280;11852;50.082;18.554;2023-12-07T03:34:10;98636.0;;;-1.0;93.69
23361;BME280;11852;50.082;18.554;2023-12-07T03:35:15;98635.0;;;-0.97;93.61
23361;BME280;11852;50.082;18.554;2023-12-07T03:36:20;98633.0;;;-0.97;93.48
23361;BME280;11852;50.082;18.554;2023-12-07T03:37:25;98633.0;;;-0.96;93.52
23361;BME280;11852;50.082;18.554;2023-12-07T03:38:30;98631.0;;;-1.04;93.54
23361;BME280;11852;50.082;18.554;2023-12-07T03:39:34;98632.0;;;-0.96;93.56
23361;BME280;11852;50.082;18.554;2023-12-07T03:40:39;98633.0;;;-0.93;93.53
23361;BME280;11852;50.082;18.554;2023-12-07T03:41:44;98638.0;;;-0.92;93.58
23361;BME280;11852;50.082;18.554;2023-12-07T03:42:48;98638.0;;;-0.91;93.72
23361;BME280;11852;50.082;18.554;2023-12-07T03:43:53;98638.0;;;-0.92;93.72
23361;BME280;11852;50.082;18.554;2023-12-07T03:44:58;98640.0;;;-0.91;93.97
23361;BME280;11852;50.082;18.554;2023-12-07T03:46:03;98642.0;;;-0.9;94.03
23361;BME280;11852;50.082;18.554;2023-12-07T03:47:08;98642.0;;;-0.9;94.0
23361;BME280;11852;50.082;18.554;2023-12-07T03:48:13;98639.0;;;-0.89;94.01
23361;BME280;11852;50.082;18.554;2023-12-07T03:49:18;98642.0;;;-0.89;93.83
23361;BME280;11852;50.082;18.554;2023-12-07T03:50:22;98640.0;;;-0.88;93.91
23361;BME280;11852;50.082;18.554;2023-12-07T03:51:27;98642.0;;;-0.88;94.08
23361;BME280;11852;50.082;18.554;2023-12-07T03:52:32;98646.0;;;-0.9;93.9
23361;BME280;11852;50.082;18.554;2023-12-07T03:53:37;98644.0;;;-0.92;93.96
23361;BME280;11852;50.082;18.554;2023-12-07T03:54:41;98644.0;;;-0.92;93.97
23361;BME280;11852;50.082;18.554;2023-12-07T03:55:46;98643.0;;;-0.92;94.02
23361;BME280;11852;50.082;18.554;2023-12-07T03:56:51;98643.0;;;-0.93;94.12
23361;BME280;11852;50.082;18.554;2023-12-07T03:57:56;98648.0;;;-0.92;94.19
23361;BME280;11852;50.082;18.554;2023-12-07T03:59:00;98647.0;;;-0.91;94.3
23361;BME280;11852;50.082;18.554;2023-12-07T04:00:06;98647.0;;;-0.91;94.15
23361;BME280;11852;50.082;18.554;2023-12-07T04:01:10;98653.0;;;-0.92;94.21
23361;BME280;11852;50.082;18.554;2023-12-07T04:02:15;98654.0;;;-0.91;94.27
23361;BME280;11852;50.082;18.554;2023-12-07T04:03:20;98656.0;;;-0.9;94.33
23361;BME280;11852;50.082;18.554;2023-12-07T04:04:25;98659.0;;;-0.89;94.44
23361;BME280;11852;50.082;18.554;2023-12-07T04:05:30;98659.0;;;-0.86;94.56
23361;BME280;11852;50.082;18.554;2023-12-07T04:06:35;98654.0;;;-0.86;94.57
23361;BME280;11852;50.082;18.554;2023-12-07T04:07:39;98658.0;;;-0.86;94.56
23361;BME280;11852;50.082;18.554;2023-12-07T04:08:44;98655.0;;;-0.85;94.64
23361;BME280;11852;50.082;18.554;2023-12-07T04:09:49;98658.0;;;-0.83;94.61
23361;BME280;11852;50.082;18.554;2023-12-07T04:10:54;98657.0;;;-0.83;94.55
23361;BME280;11852;50.082;18.554;2023-12-07T04:11:59;98659.0;;;-0.92;94.08
23361;BME280;11852;50.082;18.554;2023-12-07T04:13:03;98657.0;;;-0.9;94.04
23361;BME280;11852;50.082;18.554;2023-12-07T04:14:08;98657.0;;;-0.89;93.88
23361;BME280;11852;50.082;18.554;2023-12-07T04:15:13;98657.0;;;-0.91;93.84
23361;BME280;11852;50.082;18.554;2023-12-07T04:16:18;98658.0;;;-0.91;93.89
23361;BME280;11852;50.082;18.554;2023-12-07T04:17:23;98658.0;;;-0.9;94.12
23361;BME280;11852;50.082;18.554;2023-12-07T04:18:27;98657.0;;;-0.9;94.2
23361;BME280;11852;50.082;18.554;2023-12-07T04:19:32;98656.0;;;-0.9;94.2
23361;BME280;11852;50.082;18.554;2023-12-07T04:20:37;98657.0;;;-0.92;93.95
23361;BME280;11852;50.082;18.554;2023-12-07T04:21:42;98655.0;;;-0.94;93.84
23361;BME280;11852;50.082;18.554;2023-12-07T04:22:47;98662.0;;;-0.97;93.86
23361;BME280;11852;50.082;18.554;2023-12-07T04:23:52;98663.0;;;-0.96;93.9
23361;BME280;11852;50.082;18.554;2023-12-07T04:24:56;98666.0;;;-1.0;93.95
23361;BME280;11852;50.082;18.554;2023-12-07T04:26:01;98664.0;;;-0.97;94.04
23361;BME280;11852;50.082;18.554;2023-12-07T04:27:06;98673.0;;;-0.96;94.02
23361;BME280;11852;50.082;18.554;2023-12-07T04:28:11;98673.0;;;-0.95;94.31
23361;BME280;11852;50.082;18.554;2023-12-07T04:29:15;98674.0;;;-0.96;94.52
23361;BME280;11852;50.082;18.554;2023-12-07T04:30:20;98673.0;;;-0.97;94.3
23361;BME280;11852;50.082;18.554;2023-12-07T04:31:25;98676.0;;;-0.97;94.36
23361;BME280;11852;50.082;18.554;2023-12-07T04:32:30;98679.0;;;-0.96;94.36
23361;BME280;11852;50.082;18.554;2023-12-07T04:33:35;98677.0;;;-0.95;94.5
23361;BME280;11852;50.082;18.554;2023-12-07T04:34:39;98676.0;;;-0.94;94.62
23361;BME280;11852;50.082;18.554;2023-12-07T04:35:44;98675.0;;;-0.93;94.77
23361;BME280;11852;50.082;18.554;2023-12-07T04:36:49;98676.0;;;-0.91;94.83
23361;BME280;11852;50.082;18.554;2023-12-07T04:37:54;98677.0;;;-0.88;94.95
23361;BME280;11852;50.082;18.554;2023-12-07T04:38:58;98678.0;;;-0.89;94.92
23361;BME280;11852;50.082;18.554;2023-12-07T04:40:03;98680.0;;;-0.89;94.85
23361;BME280;11852;50.082;18.554;2023-12-07T04:41:08;98683.0;;;-0.89;94.88
23361;BME280;11852;50.082;18.554;2023-12-07T04:42:13;98681.0;;;-0.89;94.82
23361;BME280;11852;50.082;18.554;2023-12-07T04:43:18;98684.0;;;-0.89;94.76
23361;BME280;11852;50.082;18.554;2023-12-07T04:44:23;98684.0;;;-0.89;94.7
23361;BME280;11852;50.082;18.554;2023-12-07T04:45:27;98689.0;;;-0.88;94.77
23361;BME280;11852;50.082;18.554;2023-12-07T04:46:32;98687.0;;;-0.89;94.89
23361;BME280;11852;50.082;18.554;2023-12-07T04:47:37;98691.0;;;-0.91;95.02
23361;BME280;11852;50.082;18.554;2023-12-07T04:48:42;98689.0;;;-0.88;94.87
23361;BME280;11852;50.082;18.554;2023-12-07T04:49:47;98695.0;;;-1.05;94.97
23361;BME280;11852;50.082;18.554;2023-12-07T04:50:51;98696.0;;;-1.0;95.21
23361;BME280;11852;50.082;18.554;2023-12-07T04:51:56;98693.0;;;-1.15;95.05
23361;BME280;11852;50.082;18.554;2023-12-07T04:53:01;98700.0;;;-1.02;95.17
23361;BME280;11852;50.082;18.554;2023-12-07T04:54:06;98700.0;;;-0.97;94.92
23361;BME280;11852;50.082;18.554;2023-12-07T04:55:10;98705.0;;;-0.99;94.88
23361;BME280;11852;50.082;18.554;2023-12-07T04:56:15;98704.0;;;-0.94;94.88
23361;BME280;11852;50.082;18.554;2023-12-07T04:57:20;98707.0;;;-0.92;94.76
23361;BME280;11852;50.082;18.554;2023-12-07T04:58:25;98708.0;;;-0.92;94.84
23361;BME280;11852;50.082;18.554;2023-12-07T04:59:29;98710.0;;;-0.88;94.83
23361;BME280;11852;50.082;18.554;2023-12-07T05:00:34;98706.0;;;-0.85;94.79
23361;BME280;11852;50.082;18.554;2023-12-07T05:01:39;98706.0;;;-0.84;94.81
23361;BME280;11852;50.082;18.554;2023-12-07T05:02:44;98700.0;;;-0.83;94.88
23361;BME280;11852;50.082;18.554;2023-12-07T05:03:49;98708.0;;;-0.82;94.85
23361;BME280;11852;50.082;18.554;2023-12-07T05:04:53;98708.0;;;-0.85;94.79
23361;BME280;11852;50.082;18.554;2023-12-07T05:05:58;98712.0;;;-0.89;94.78
23361;BME280;11852;50.082;18.554;2023-12-07T05:07:03;98711.0;;;-0.89;94.53
23361;BME280;11852;50.082;18.554;2023-12-07T05:08:08;98714.0;;;-0.87;94.47
23361;BME280;11852;50.082;18.554;2023-12-07T05:09:13;98715.0;;;-0.87;94.6
23361;BME280;11852;50.082;18.554;2023-12-07T05:10:17;98719.0;;;-0.88;94.71
23361;BME280;11852;50.082;18.554;2023-12-07T05:11:22;98722.0;;;-0.88;94.79
23361;BME280;11852;50.082;18.554;2023-12-07T05:12:27;98720.0;;;-0.86;95.01
23361;BME280;11852;50.082;18.554;2023-12-07T05:13:32;98723.0;;;-0.86;94.99
23361;BME280;11852;50.082;18.554;2023-12-07T05:14:37;98722.0;;;-0.96;94.92
23361;BME280;11852;50.082;18.554;2023-12-07T05:15:41;98725.0;;;-0.95;94.93
23361;BME280;11852;50.082;18.554;2023-12-07T05:16:46;98723.0;;;-0.98;95.19
23361;BME280;11852;50.082;18.554;2023-12-07T05:17:51;98725.0;;;-1.11;95.36
23361;BME280;11852;50.082;18.554;2023-12-07T05:18:56;98726.0;;;-1.07;95.62
23361;BME280;11852;50.082;18.554;2023-12-07T05:20:01;98721.0;;;-0.97;95.38
23361;BME280;11852;50.082;18.554;2023-12-07T05:21:06;98723.0;;;-0.96;95.3
23361;BME280;11852;50.082;18.554;2023-12-07T05:22:11;98724.0;;;-0.93;95.26
23361;BME280;11852;50.082;18.554;2023-12-07T05:23:15;98723.0;;;-0.9;95.15
23361;BME280;11852;50.082;18.554;2023-12-07T05:24:20;98725.0;;;-0.9;94.95
23361;BME280;11852;50.082;18.554;2023-12-07T05:25:25;98721.0;;;-0.87;94.98
23361;BME280;11852;50.082;18.554;2023-12-07T05:26:30;98721.0;;;-0.87;95.24
23361;BME280;11852;50.082;18.554;2023-12-07T05:27:35;98721.0;;;-0.85;95.25
23361;BME280;11852;50.082;18.554;2023-12-07T05:28:39;98723.0;;;-0.83;95.33
23361;BME280;11852;50.082;18.554;2023-12-07T05:29:44;98722.0;;;-0.82;95.34
23361;BME280;11852;50.082;18.554;2023-12-07T05:30:49;98721.0;;;-0.78;95.35
23361;BME280;11852;50.082;18.554;2023-12-07T05:31:54;98725.0;;;-0.78;95.53
23361;BME280;11852;50.082;18.554;2023-12-07T05:32:58;98723.0;;;-0.76;95.47
23361;BME280;11852;50.082;18.554;2023-12-07T05:34:03;98725.0;;;-0.75;95.54
23361;BME280;11852;50.082;18.554;2023-12-07T05:35:08;98724.0;;;-0.76;95.61
23361;BME280;11852;50.082;18.554;2023-12-07T05:36:13;98727.0;;;-0.75;95.63
23361;BME280;11852;50.082;18.554;2023-12-07T05:37:17;98731.0;;;-0.75;95.79
23361;BME280;11852;50.082;18.554;2023-12-07T05:38:22;98731.0;;;-0.74;95.72
23361;BME280;11852;50.082;18.554;2023-12-07T05:39:27;98732.0;;;-0.71;95.61
23361;BME280;11852;50.082;18.554;2023-12-07T05:40:32;98735.0;;;-0.69;95.59
23361;BME280;11852;50.082;18.554;2023-12-07T05:41:36;98732.0;;;-0.68;95.6
23361;BME280;11852;50.082;18.554;2023-12-07T05:42:41;98733.0;;;-0.72;95.48
23361;BME280;11852;50.082;18.554;2023-12-07T05:43:46;98730.0;;;-0.72;95.51
23361;BME280;11852;50.082;18.554;2023-12-07T05:44:51;98732.0;;;-0.71;95.48
23361;BME280;11852;50.082;18.554;2023-12-07T05:45:56;98733.0;;;-0.72;95.47
23361;BME280;11852;50.082;18.554;2023-12-07T05:47:00;98742.0;;;-0.72;95.45
23361;BME280;11852;50.082;18.554;2023-12-07T05:48:05;98739.0;;;-0.72;95.42
23361;BME280;11852;50.082;18.554;2023-12-07T05:49:10;98738.0;;;-0.79;95.42
23361;BME280;11852;50.082;18.554;2023-12-07T05:50:15;98740.0;;;-0.8;95.55